SBOSBO NUE / EDDN
Speedbird OnlineSpeedbird Online NUE / EDDN

Nuremberg Airport
23:51 16.7°C

Location Nuernberg, Germany
Latitude: 49.498699
Longitude: 11.078056
Local Time 23:51 on 20 May 2024
UTC +2 hours (Europe/Berlin)
Currency £1 equals EUR 1.17
METAR EDDN 202120Z AUTO 04005KT CAVOK 18/10 Q1009
TAF TAF EDDN 201700Z 2018/2118 05005KT CAVOK TEMPO 2112/2118 SHRA SCT012 BKN030CB PROB40 TEMPO 2113/2118 2500 TSRA BECMG 2116/2118 25010KT
Weather As Of 20 May 2024 23:51
Description Clear sky
Wind 9 km/h from North-East (40°)
Cloud Cover 0%
Precipitation Rain: none, Snow: none
Sunrise 05:25
Sunset 20:59
NOTAM 12 active NOTAM
Lounges Dürer Lounge, Main Terminal
Web Airport Website | Wikipedia
Codes IATA: NUE
ICAO: EDDN
Altitude 319 Meter / 1046 Feet
Distance 805 KM / 500 Miles
from London.
Runways
RunwayLength (m)Surface
102700Asphalt
282700Asphalt
Radio
TypeDescriptionFrequency
APPNürnberg Director119.475
ATISATIS123.075
GNDNUERNBERG GROUND118.1
RDRMUNCHEN RADAR129.525
TWRNUERNBERG TOWER118.3
Live ATC



Support Speedbird Online

© 2017-2024 Speedbird Online